createdAt,value
2018-07-09T00:00:00.000Z,38
2018-07-09T00:01:00.000Z,38
2018-07-09T00:02:00.000Z,38
2018-07-09T00:03:00.000Z,38
2018-07-09T00:04:00.000Z,38
2018-07-09T00:05:00.000Z,38
2018-07-09T00:07:00.000Z,38
2018-07-09T00:08:00.000Z,38
2018-07-09T00:09:00.000Z,38
2018-07-09T00:10:00.000Z,38
2018-07-09T00:11:00.000Z,39
2018-07-09T00:12:00.000Z,38
2018-07-09T00:13:00.000Z,38
2018-07-09T00:14:00.000Z,39
2018-07-09T00:15:00.000Z,38
2018-07-09T00:16:00.000Z,38
2018-07-09T00:18:00.000Z,38
2018-07-09T00:19:00.000Z,38
2018-07-09T00:21:00.000Z,38
2018-07-09T00:22:00.000Z,38
2018-07-09T00:23:00.000Z,38
2018-07-09T00:24:00.000Z,38
2018-07-09T00:25:00.000Z,38
2018-07-09T00:26:00.000Z,38
2018-07-09T00:27:00.000Z,38
2018-07-09T00:28:00.000Z,38
2018-07-09T00:29:00.000Z,38
2018-07-09T00:30:00.000Z,39
2018-07-09T00:31:00.000Z,39
2018-07-09T00:32:00.000Z,38
2018-07-09T00:33:00.000Z,39
2018-07-09T00:34:00.000Z,38
2018-07-09T00:35:00.000Z,39
2018-07-09T00:37:00.000Z,38
2018-07-09T00:38:00.000Z,39
2018-07-09T00:40:00.000Z,38
2018-07-09T00:42:00.000Z,38
2018-07-09T00:44:00.000Z,39
2018-07-09T00:45:00.000Z,39
2018-07-09T00:46:00.000Z,39
2018-07-09T00:47:00.000Z,39
2018-07-09T00:48:00.000Z,39
2018-07-09T00:50:00.000Z,39
2018-07-09T00:51:00.000Z,39
2018-07-09T00:52:00.000Z,39
2018-07-09T00:53:00.000Z,39
2018-07-09T00:54:00.000Z,39
2018-07-09T00:55:00.000Z,39
2018-07-09T00:56:00.000Z,39
2018-07-09T00:57:00.000Z,39
2018-07-09T00:58:00.000Z,39
2018-07-09T00:59:00.000Z,39
2018-07-09T01:01:00.000Z,39
2018-07-09T01:02:00.000Z,39
2018-07-09T01:03:00.000Z,39
2018-07-09T01:04:00.000Z,39
2018-07-09T01:05:00.000Z,39
2018-07-09T01:06:00.000Z,39
2018-07-09T01:07:00.000Z,39
2018-07-09T01:08:00.000Z,39
2018-07-09T01:09:00.000Z,39
2018-07-09T01:11:00.000Z,39
2018-07-09T01:12:00.000Z,39
2018-07-09T01:13:00.000Z,39
2018-07-09T01:15:00.000Z,39
2018-07-09T01:17:00.000Z,39
2018-07-09T01:18:00.000Z,39
2018-07-09T01:19:00.000Z,39
2018-07-09T01:21:00.000Z,39
2018-07-09T01:22:00.000Z,39
2018-07-09T01:24:00.000Z,39
2018-07-09T01:25:00.000Z,39
2018-07-09T01:26:00.000Z,39
2018-07-09T01:27:00.000Z,39
2018-07-09T01:28:00.000Z,39
2018-07-09T01:29:00.000Z,39
2018-07-09T01:30:00.000Z,39
2018-07-09T01:31:00.000Z,39
2018-07-09T01:32:00.000Z,39
2018-07-09T01:33:00.000Z,39
2018-07-09T01:35:00.000Z,39
2018-07-09T01:36:00.000Z,39
2018-07-09T01:38:00.000Z,39
2018-07-09T01:39:00.000Z,39
2018-07-09T01:40:00.000Z,39
2018-07-09T01:41:00.000Z,39
2018-07-09T01:42:00.000Z,39
2018-07-09T01:43:00.000Z,39
2018-07-09T01:44:00.000Z,39
2018-07-09T01:45:00.000Z,39
2018-07-09T01:46:00.000Z,39
2018-07-09T01:47:00.000Z,39
2018-07-09T01:48:00.000Z,39
2018-07-09T01:49:00.000Z,39
2018-07-09T01:50:00.000Z,39
2018-07-09T01:51:00.000Z,39
2018-07-09T01:52:00.000Z,39
2018-07-09T01:53:00.000Z,39
2018-07-09T01:54:00.000Z,39
2018-07-09T01:55:00.000Z,39
2018-07-09T01:56:00.000Z,39
2018-07-09T01:57:01.000Z,40
2018-07-09T01:58:01.000Z,40
2018-07-09T01:59:01.000Z,40
2018-07-09T02:00:01.000Z,40
2018-07-09T02:01:01.000Z,40
2018-07-09T02:02:01.000Z,40
2018-07-09T02:03:01.000Z,40
2018-07-09T02:04:01.000Z,40
2018-07-09T02:05:01.000Z,40
2018-07-09T02:06:01.000Z,40
2018-07-09T02:07:01.000Z,40
2018-07-09T02:09:01.000Z,40
2018-07-09T02:10:01.000Z,40
2018-07-09T02:11:01.000Z,40
2018-07-09T02:12:01.000Z,40
2018-07-09T02:13:01.000Z,40
2018-07-09T02:14:01.000Z,40
2018-07-09T02:15:01.000Z,40
2018-07-09T02:16:01.000Z,40
2018-07-09T02:17:01.000Z,40
2018-07-09T02:18:01.000Z,40
2018-07-09T02:19:01.000Z,40
2018-07-09T02:20:01.000Z,40
2018-07-09T02:21:01.000Z,40
2018-07-09T02:23:01.000Z,40
2018-07-09T02:24:01.000Z,40
2018-07-09T02:25:01.000Z,40
2018-07-09T02:26:01.000Z,40
2018-07-09T02:28:01.000Z,40
2018-07-09T02:29:01.000Z,41
2018-07-09T02:30:01.000Z,41
2018-07-09T02:31:01.000Z,41
2018-07-09T02:32:01.000Z,41
2018-07-09T02:33:01.000Z,40
2018-07-09T02:34:01.000Z,41
2018-07-09T02:35:01.000Z,40
2018-07-09T02:36:01.000Z,41
2018-07-09T02:37:01.000Z,40
2018-07-09T02:39:01.000Z,40
2018-07-09T02:40:01.000Z,40
2018-07-09T02:41:01.000Z,41
2018-07-09T02:43:01.000Z,40
2018-07-09T02:44:01.000Z,40
2018-07-09T02:45:01.000Z,41
2018-07-09T02:46:01.000Z,40
2018-07-09T02:47:01.000Z,40
2018-07-09T02:48:01.000Z,40
2018-07-09T02:49:01.000Z,40
2018-07-09T02:50:01.000Z,40
2018-07-09T02:51:01.000Z,40
2018-07-09T02:52:01.000Z,40
2018-07-09T02:53:01.000Z,40
2018-07-09T02:54:01.000Z,40
2018-07-09T02:55:01.000Z,40
2018-07-09T02:56:01.000Z,40
2018-07-09T02:57:01.000Z,40
2018-07-09T02:58:01.000Z,40
2018-07-09T03:00:01.000Z,40
2018-07-09T03:01:00.000Z,40
2018-07-09T03:02:00.000Z,40
2018-07-09T03:03:00.000Z,40
2018-07-09T03:04:00.000Z,40
2018-07-09T03:06:00.000Z,40
2018-07-09T03:08:00.000Z,40
2018-07-09T03:09:00.000Z,40
2018-07-09T03:10:00.000Z,40
2018-07-09T03:11:00.000Z,41
2018-07-09T03:12:00.000Z,41
2018-07-09T03:13:00.000Z,41
2018-07-09T03:14:00.000Z,41
2018-07-09T03:15:00.000Z,41
2018-07-09T03:16:00.000Z,41
2018-07-09T03:17:00.000Z,41
2018-07-09T03:18:00.000Z,41
2018-07-09T03:19:00.000Z,41
2018-07-09T03:20:00.000Z,41
2018-07-09T03:21:00.000Z,41
2018-07-09T03:23:00.000Z,41
2018-07-09T03:24:00.000Z,41
2018-07-09T03:25:00.000Z,41
2018-07-09T03:27:00.000Z,41
2018-07-09T03:28:00.000Z,41
2018-07-09T03:29:00.000Z,41
2018-07-09T03:31:00.000Z,41
2018-07-09T03:32:00.000Z,41
2018-07-09T03:33:00.000Z,41
2018-07-09T03:35:00.000Z,41
2018-07-09T03:36:00.000Z,41
2018-07-09T03:37:00.000Z,41
2018-07-09T03:38:00.000Z,41
2018-07-09T03:39:00.000Z,41
2018-07-09T03:40:00.000Z,41
2018-07-09T03:41:00.000Z,41
2018-07-09T03:42:00.000Z,41
2018-07-09T03:43:00.000Z,41
2018-07-09T03:44:00.000Z,41
2018-07-09T03:45:00.000Z,41
2018-07-09T03:46:00.000Z,41
2018-07-09T03:47:00.000Z,41
2018-07-09T03:48:00.000Z,41
2018-07-09T03:49:00.000Z,41
2018-07-09T03:50:00.000Z,41
2018-07-09T03:51:00.000Z,41
2018-07-09T03:52:00.000Z,41
2018-07-09T03:53:00.000Z,41
2018-07-09T03:54:00.000Z,41
2018-07-09T03:55:00.000Z,40
2018-07-09T03:56:00.000Z,41
2018-07-09T03:57:00.000Z,41
2018-07-09T03:59:00.000Z,40
2018-07-09T04:00:00.000Z,41
2018-07-09T04:01:00.000Z,40
2018-07-09T04:02:00.000Z,41
2018-07-09T04:03:00.000Z,41
2018-07-09T04:04:00.000Z,41
2018-07-09T04:05:00.000Z,40
2018-07-09T04:06:00.000Z,41
2018-07-09T04:07:00.000Z,41
2018-07-09T04:08:00.000Z,40
2018-07-09T04:09:00.000Z,40
2018-07-09T04:10:00.000Z,40
2018-07-09T04:11:00.000Z,40
2018-07-09T04:13:00.000Z,40
2018-07-09T04:14:00.000Z,40
2018-07-09T04:15:00.000Z,40
2018-07-09T04:16:00.000Z,40
2018-07-09T04:17:00.000Z,40
2018-07-09T04:18:00.000Z,40
2018-07-09T04:19:00.000Z,40
2018-07-09T04:20:00.000Z,40
2018-07-09T04:21:00.000Z,40
2018-07-09T04:23:00.000Z,40
2018-07-09T04:24:00.000Z,40
2018-07-09T04:25:00.000Z,40
2018-07-09T04:26:00.000Z,40
2018-07-09T04:27:00.000Z,40
2018-07-09T04:28:00.000Z,40
2018-07-09T04:30:00.000Z,40
2018-07-09T04:31:00.000Z,40
2018-07-09T04:32:00.000Z,41
2018-07-09T04:33:00.000Z,40
2018-07-09T04:34:00.000Z,40
2018-07-09T04:35:00.000Z,40
2018-07-09T04:37:00.000Z,40
2018-07-09T04:38:00.000Z,40
2018-07-09T04:40:00.000Z,40
2018-07-09T04:41:00.000Z,40
2018-07-09T04:43:00.000Z,40
2018-07-09T04:44:00.000Z,40
2018-07-09T04:45:00.000Z,40
2018-07-09T04:46:00.000Z,40
2018-07-09T04:48:00.000Z,40
2018-07-09T04:49:00.000Z,40
2018-07-09T04:50:00.000Z,40
2018-07-09T04:51:00.000Z,40
2018-07-09T04:52:00.000Z,40
2018-07-09T04:54:00.000Z,40
2018-07-09T04:55:00.000Z,41
2018-07-09T04:56:00.000Z,41
2018-07-09T04:57:00.000Z,41
2018-07-09T04:58:00.000Z,40
2018-07-09T04:59:00.000Z,41
2018-07-09T05:00:00.000Z,41
2018-07-09T05:01:00.000Z,41
2018-07-09T05:02:00.000Z,40
2018-07-09T05:03:00.000Z,41
2018-07-09T05:04:00.000Z,41
2018-07-09T05:05:00.000Z,41
2018-07-09T05:06:00.000Z,40
2018-07-09T05:07:00.000Z,41
2018-07-09T05:08:00.000Z,40
2018-07-09T05:09:00.000Z,40
2018-07-09T05:10:00.000Z,40
2018-07-09T05:11:00.000Z,40
2018-07-09T05:12:00.000Z,40
2018-07-09T05:13:00.000Z,40
2018-07-09T05:14:00.000Z,40
2018-07-09T05:16:00.000Z,40
2018-07-09T05:17:00.000Z,40
2018-07-09T05:18:00.000Z,40
2018-07-09T05:19:00.000Z,40
2018-07-09T05:20:00.000Z,40
2018-07-09T05:21:00.000Z,40
2018-07-09T05:22:00.000Z,40
2018-07-09T05:23:00.000Z,40
2018-07-09T05:24:00.000Z,40
2018-07-09T05:25:00.000Z,40
2018-07-09T05:26:00.000Z,40
2018-07-09T05:27:00.000Z,40
2018-07-09T05:28:00.000Z,40
2018-07-09T05:29:00.000Z,40
2018-07-09T05:31:00.000Z,40
2018-07-09T05:32:00.000Z,40
2018-07-09T05:33:00.000Z,40
2018-07-09T05:34:00.000Z,40
2018-07-09T05:35:00.000Z,40
2018-07-09T05:36:00.000Z,40
2018-07-09T05:37:00.000Z,40
2018-07-09T05:38:00.000Z,40
2018-07-09T05:39:00.000Z,40
2018-07-09T05:40:00.000Z,40
2018-07-09T05:41:00.000Z,40
2018-07-09T05:42:00.000Z,40
2018-07-09T05:43:00.000Z,40
2018-07-09T05:44:00.000Z,40
2018-07-09T05:45:00.000Z,40
2018-07-09T05:46:00.000Z,40
2018-07-09T05:47:00.000Z,40
2018-07-09T05:48:00.000Z,40
2018-07-09T05:49:00.000Z,40
2018-07-09T05:50:00.000Z,40
2018-07-09T05:51:00.000Z,40
2018-07-09T05:52:00.000Z,40
2018-07-09T05:53:00.000Z,40
2018-07-09T05:54:00.000Z,40
2018-07-09T05:55:00.000Z,40
2018-07-09T05:56:00.000Z,40
2018-07-09T05:57:00.000Z,40
2018-07-09T05:58:00.000Z,40
2018-07-09T05:59:00.000Z,40
2018-07-09T06:00:00.000Z,40
2018-07-09T06:01:00.000Z,40
2018-07-09T06:02:00.000Z,40
2018-07-09T06:03:00.000Z,40
2018-07-09T06:04:00.000Z,40
2018-07-09T06:06:00.000Z,39
2018-07-09T06:07:00.000Z,40
2018-07-09T06:08:00.000Z,40
2018-07-09T06:09:00.000Z,40
2018-07-09T06:10:00.000Z,40
2018-07-09T06:12:00.000Z,39
2018-07-09T06:13:00.000Z,40
2018-07-09T06:14:00.000Z,40
2018-07-09T06:15:00.000Z,39
2018-07-09T06:16:00.000Z,39
2018-07-09T06:17:00.000Z,39
2018-07-09T06:18:00.000Z,39
2018-07-09T06:19:00.000Z,39
2018-07-09T06:20:00.000Z,39
2018-07-09T06:21:00.000Z,39
2018-07-09T06:22:00.000Z,39
2018-07-09T06:23:00.000Z,39
2018-07-09T06:24:00.000Z,39
2018-07-09T06:25:00.000Z,39
2018-07-09T06:26:00.000Z,39
2018-07-09T06:27:00.000Z,39
2018-07-09T06:28:00.000Z,39
2018-07-09T06:29:00.000Z,39
2018-07-09T06:30:00.000Z,39
2018-07-09T06:31:00.000Z,39
2018-07-09T06:32:00.000Z,39
2018-07-09T06:33:00.000Z,39
2018-07-09T06:34:00.000Z,38
2018-07-09T06:35:00.000Z,38
2018-07-09T06:36:00.000Z,38
2018-07-09T06:37:00.000Z,38
2018-07-09T06:38:00.000Z,38
2018-07-09T06:39:00.000Z,38
2018-07-09T06:40:00.000Z,38
2018-07-09T06:41:00.000Z,38
2018-07-09T06:42:00.000Z,38
2018-07-09T06:44:00.000Z,38
2018-07-09T06:46:00.000Z,37
2018-07-09T06:47:00.000Z,38
2018-07-09T06:48:00.000Z,37
2018-07-09T06:49:00.000Z,38
2018-07-09T06:52:46.000Z,38
2018-07-09T06:53:46.000Z,38
2018-07-09T06:54:46.000Z,38
2018-07-09T06:55:46.000Z,38
2018-07-09T06:56:46.000Z,38
2018-07-09T06:57:46.000Z,38
2018-07-09T06:58:46.000Z,38
2018-07-09T06:59:46.000Z,38
2018-07-09T07:00:46.000Z,38
2018-07-09T07:01:46.000Z,38
2018-07-09T07:02:46.000Z,37
2018-07-09T07:03:46.000Z,38
2018-07-09T07:04:46.000Z,37
2018-07-09T07:05:46.000Z,37
2018-07-09T07:07:46.000Z,37
2018-07-09T07:08:46.000Z,37
2018-07-09T07:09:46.000Z,37
2018-07-09T07:10:46.000Z,37
2018-07-09T07:11:46.000Z,37
2018-07-09T07:12:46.000Z,37
2018-07-09T07:13:46.000Z,37
2018-07-09T07:15:46.000Z,37
2018-07-09T07:19:32.000Z,36
2018-07-09T07:20:32.000Z,37
2018-07-09T07:21:32.000Z,37
2018-07-09T07:22:32.000Z,37
2018-07-09T07:24:32.000Z,36
2018-07-09T07:26:32.000Z,36
2018-07-09T07:27:32.000Z,36
2018-07-09T07:28:32.000Z,36
2018-07-09T07:29:32.000Z,36
2018-07-09T07:30:32.000Z,36
2018-07-09T07:31:32.000Z,36
2018-07-09T07:32:32.000Z,36
2018-07-09T07:34:32.000Z,36
2018-07-09T07:35:32.000Z,36
2018-07-09T07:36:32.000Z,36
2018-07-09T07:37:32.000Z,36
2018-07-09T07:38:32.000Z,36
2018-07-09T07:39:32.000Z,36
2018-07-09T07:40:32.000Z,36
2018-07-09T07:41:32.000Z,36
2018-07-09T07:42:32.000Z,36
2018-07-09T07:43:32.000Z,35
2018-07-09T07:44:32.000Z,35
2018-07-09T07:45:32.000Z,35
2018-07-09T07:46:32.000Z,35
2018-07-09T07:48:32.000Z,35
2018-07-09T07:49:32.000Z,35
2018-07-09T07:51:32.000Z,34
2018-07-09T07:52:32.000Z,34
2018-07-09T07:53:32.000Z,34
2018-07-09T07:54:32.000Z,34
2018-07-09T07:55:32.000Z,34
2018-07-09T07:56:32.000Z,34
2018-07-09T07:57:32.000Z,34
2018-07-09T07:58:32.000Z,34
2018-07-09T08:00:32.000Z,34
2018-07-09T08:02:32.000Z,34
2018-07-09T08:03:32.000Z,34
2018-07-09T08:04:32.000Z,34
2018-07-09T08:05:32.000Z,34
2018-07-09T08:06:32.000Z,34
2018-07-09T08:07:32.000Z,33
2018-07-09T08:08:32.000Z,33
2018-07-09T08:09:32.000Z,33
2018-07-09T08:11:32.000Z,33
2018-07-09T08:13:32.000Z,33
2018-07-09T08:14:32.000Z,33
2018-07-09T08:15:32.000Z,33
2018-07-09T08:16:32.000Z,33
2018-07-09T08:17:33.000Z,33
2018-07-09T08:18:33.000Z,33
2018-07-09T08:19:33.000Z,33
2018-07-09T08:20:33.000Z,33
2018-07-09T08:21:33.000Z,33
2018-07-09T08:22:33.000Z,33
2018-07-09T08:23:33.000Z,33
2018-07-09T08:24:33.000Z,33
2018-07-09T08:25:33.000Z,33
2018-07-09T08:27:33.000Z,33
2018-07-09T08:28:33.000Z,33
2018-07-09T08:29:33.000Z,33
2018-07-09T08:30:33.000Z,33
2018-07-09T08:31:33.000Z,33
2018-07-09T08:32:33.000Z,33
2018-07-09T08:34:33.000Z,33
2018-07-09T08:35:33.000Z,33
2018-07-09T08:36:33.000Z,33
2018-07-09T08:38:33.000Z,33
2018-07-09T08:40:33.000Z,32
2018-07-09T08:41:33.000Z,33
2018-07-09T08:42:33.000Z,33
2018-07-09T08:43:33.000Z,33
2018-07-09T08:44:33.000Z,33
2018-07-09T08:45:33.000Z,33
2018-07-09T08:47:33.000Z,32
2018-07-09T08:48:33.000Z,32
2018-07-09T08:49:33.000Z,32
2018-07-09T08:50:33.000Z,32
2018-07-09T08:52:33.000Z,32
2018-07-09T08:53:33.000Z,32
2018-07-09T08:54:33.000Z,32
2018-07-09T08:55:33.000Z,32
2018-07-09T08:56:33.000Z,32
2018-07-09T08:57:33.000Z,32
2018-07-09T08:58:33.000Z,32
2018-07-09T08:59:33.000Z,32
2018-07-09T09:01:33.000Z,32
2018-07-09T09:03:33.000Z,33
2018-07-09T09:04:33.000Z,33
2018-07-09T09:05:33.000Z,33
2018-07-09T09:06:33.000Z,33
2018-07-09T09:07:33.000Z,33
2018-07-09T09:08:33.000Z,33
2018-07-09T09:09:33.000Z,33
2018-07-09T09:10:33.000Z,33
2018-07-09T09:11:33.000Z,33
2018-07-09T09:12:33.000Z,33
2018-07-09T09:13:33.000Z,33
2018-07-09T09:14:33.000Z,33
2018-07-09T09:15:33.000Z,33
2018-07-09T09:17:33.000Z,33
2018-07-09T09:18:33.000Z,33
2018-07-09T09:19:33.000Z,34
2018-07-09T09:20:33.000Z,33
2018-07-09T09:21:32.000Z,34
2018-07-09T09:23:32.000Z,33
2018-07-09T09:24:32.000Z,34
2018-07-09T09:25:32.000Z,33
2018-07-09T09:29:18.000Z,33
2018-07-09T09:30:18.000Z,34
2018-07-09T09:31:18.000Z,34
2018-07-09T09:32:18.000Z,34
2018-07-09T09:33:18.000Z,34
2018-07-09T09:34:18.000Z,34
2018-07-09T09:35:18.000Z,34
2018-07-09T09:37:18.000Z,34
2018-07-09T09:38:18.000Z,34
2018-07-09T09:39:18.000Z,34
2018-07-09T09:40:18.000Z,34
2018-07-09T09:41:18.000Z,34
2018-07-09T09:42:18.000Z,34
2018-07-09T09:43:18.000Z,34
2018-07-09T09:44:18.000Z,34
2018-07-09T09:45:18.000Z,34
2018-07-09T09:46:18.000Z,34
2018-07-09T09:47:18.000Z,34
2018-07-09T09:48:18.000Z,33
2018-07-09T09:49:18.000Z,34
2018-07-09T09:50:18.000Z,33
2018-07-09T09:51:18.000Z,34
2018-07-09T09:52:18.000Z,34
2018-07-09T09:53:18.000Z,34
2018-07-09T09:54:18.000Z,34
2018-07-09T09:55:18.000Z,34
2018-07-09T09:56:18.000Z,34
2018-07-09T09:57:18.000Z,34
2018-07-09T09:59:18.000Z,33
2018-07-09T10:00:18.000Z,34
2018-07-09T10:01:18.000Z,34
2018-07-09T10:02:18.000Z,34
2018-07-09T10:04:18.000Z,34
2018-07-09T10:05:18.000Z,34
2018-07-09T10:06:18.000Z,34
2018-07-09T10:07:18.000Z,34
2018-07-09T10:09:18.000Z,34
2018-07-09T10:10:18.000Z,34
2018-07-09T10:11:18.000Z,34
2018-07-09T10:12:18.000Z,34
2018-07-09T10:13:18.000Z,34
2018-07-09T10:15:18.000Z,34
2018-07-09T10:16:18.000Z,34
2018-07-09T10:17:18.000Z,34
2018-07-09T10:18:18.000Z,34
2018-07-09T10:19:18.000Z,34
2018-07-09T10:21:18.000Z,34
2018-07-09T10:22:18.000Z,34
2018-07-09T10:23:18.000Z,34
2018-07-09T10:24:18.000Z,34
2018-07-09T10:25:18.000Z,34
2018-07-09T10:27:18.000Z,34
2018-07-09T10:28:18.000Z,34
2018-07-09T10:29:18.000Z,34
2018-07-09T10:30:18.000Z,34
2018-07-09T10:31:18.000Z,34
2018-07-09T10:32:18.000Z,34
2018-07-09T10:34:18.000Z,34
2018-07-09T10:35:18.000Z,34
2018-07-09T10:36:18.000Z,34
2018-07-09T10:37:18.000Z,34
2018-07-09T10:38:18.000Z,34
2018-07-09T10:39:18.000Z,34
2018-07-09T10:40:18.000Z,34
2018-07-09T10:41:18.000Z,34
2018-07-09T10:42:18.000Z,34
2018-07-09T10:43:18.000Z,34
2018-07-09T10:44:18.000Z,34
2018-07-09T10:45:18.000Z,34
2018-07-09T10:46:18.000Z,34
2018-07-09T10:47:18.000Z,34
2018-07-09T10:48:18.000Z,34
2018-07-09T10:49:18.000Z,34
2018-07-09T10:50:18.000Z,34
2018-07-09T10:51:18.000Z,34
2018-07-09T10:52:18.000Z,34
2018-07-09T10:53:18.000Z,34
2018-07-09T10:54:18.000Z,34
2018-07-09T10:55:18.000Z,34
2018-07-09T10:57:18.000Z,34
2018-07-09T10:58:18.000Z,34
2018-07-09T10:59:18.000Z,34
2018-07-09T11:00:18.000Z,34
2018-07-09T11:01:18.000Z,34
2018-07-09T11:02:18.000Z,34
2018-07-09T11:04:18.000Z,34
2018-07-09T11:05:18.000Z,34
2018-07-09T11:06:18.000Z,34
2018-07-09T11:07:18.000Z,34
2018-07-09T11:09:18.000Z,34
2018-07-09T11:10:18.000Z,34
2018-07-09T11:12:18.000Z,34
2018-07-09T11:13:18.000Z,35
2018-07-09T11:14:18.000Z,34
2018-07-09T11:15:18.000Z,35
2018-07-09T11:16:18.000Z,35
2018-07-09T11:17:18.000Z,35
2018-07-09T11:19:18.000Z,35
2018-07-09T11:20:18.000Z,35
2018-07-09T11:21:18.000Z,35
2018-07-09T11:22:18.000Z,35
2018-07-09T11:23:18.000Z,35
2018-07-09T11:24:18.000Z,35
2018-07-09T11:26:18.000Z,35
2018-07-09T11:27:18.000Z,35
2018-07-09T11:28:18.000Z,35
2018-07-09T11:29:18.000Z,35
2018-07-09T11:30:18.000Z,35
2018-07-09T11:31:18.000Z,35
2018-07-09T11:32:18.000Z,35
2018-07-09T11:33:18.000Z,35
2018-07-09T11:34:18.000Z,35
2018-07-09T11:35:18.000Z,35
2018-07-09T11:36:18.000Z,35
2018-07-09T11:37:18.000Z,35
2018-07-09T11:38:18.000Z,35
2018-07-09T11:39:18.000Z,35
2018-07-09T11:40:18.000Z,35
2018-07-09T11:42:18.000Z,35
2018-07-09T11:43:18.000Z,35
2018-07-09T11:44:18.000Z,35
2018-07-09T11:45:18.000Z,35
2018-07-09T11:46:18.000Z,35
2018-07-09T11:47:18.000Z,35
2018-07-09T11:49:18.000Z,35
2018-07-09T11:50:18.000Z,35
2018-07-09T11:51:18.000Z,35
2018-07-09T11:52:18.000Z,35
2018-07-09T11:53:18.000Z,35
2018-07-09T11:54:18.000Z,35
2018-07-09T11:55:18.000Z,35
2018-07-09T11:56:18.000Z,35
2018-07-09T11:57:18.000Z,35
2018-07-09T11:58:18.000Z,35
2018-07-09T11:59:18.000Z,35
2018-07-09T12:00:18.000Z,35
2018-07-09T12:02:18.000Z,35
2018-07-09T12:03:18.000Z,35
2018-07-09T12:04:18.000Z,35
2018-07-09T12:05:18.000Z,35
2018-07-09T12:06:18.000Z,35
2018-07-09T12:07:18.000Z,35
2018-07-09T12:08:18.000Z,35
2018-07-09T12:09:18.000Z,35
2018-07-09T12:10:18.000Z,35
2018-07-09T12:11:18.000Z,35
2018-07-09T12:12:18.000Z,35
2018-07-09T12:13:18.000Z,35
2018-07-09T12:14:18.000Z,35
2018-07-09T12:15:18.000Z,35
2018-07-09T12:17:18.000Z,35
2018-07-09T12:18:18.000Z,35
2018-07-09T12:19:18.000Z,36
2018-07-09T12:20:18.000Z,35
2018-07-09T12:21:18.000Z,35
2018-07-09T12:23:18.000Z,35
2018-07-09T12:24:18.000Z,35
2018-07-09T12:25:18.000Z,36
2018-07-09T12:26:18.000Z,35
2018-07-09T12:27:18.000Z,36
2018-07-09T12:29:18.000Z,35
2018-07-09T12:30:18.000Z,36
2018-07-09T12:31:18.000Z,36
2018-07-09T12:32:19.000Z,36
2018-07-09T12:33:19.000Z,36
2018-07-09T12:35:19.000Z,36
2018-07-09T12:37:19.000Z,35
2018-07-09T12:38:19.000Z,36
2018-07-09T12:39:19.000Z,36
2018-07-09T12:40:19.000Z,36
2018-07-09T12:41:19.000Z,36
2018-07-09T12:42:19.000Z,36
2018-07-09T12:43:19.000Z,36
2018-07-09T12:44:19.000Z,36
2018-07-09T12:46:19.000Z,36
2018-07-09T12:47:19.000Z,36
2018-07-09T12:48:19.000Z,36
2018-07-09T12:49:19.000Z,36
2018-07-09T12:50:19.000Z,36
2018-07-09T12:51:19.000Z,36
2018-07-09T12:52:19.000Z,36
2018-07-09T12:53:19.000Z,36
2018-07-09T12:54:19.000Z,36
2018-07-09T12:56:19.000Z,36
2018-07-09T12:57:19.000Z,36
2018-07-09T12:58:19.000Z,36
2018-07-09T12:59:19.000Z,36
2018-07-09T13:00:19.000Z,36
2018-07-09T13:02:19.000Z,35
2018-07-09T13:03:19.000Z,36
2018-07-09T13:04:19.000Z,36
2018-07-09T13:05:19.000Z,36
2018-07-09T13:06:19.000Z,36
2018-07-09T13:07:19.000Z,36
2018-07-09T13:08:19.000Z,36
2018-07-09T13:09:19.000Z,36
2018-07-09T13:10:19.000Z,36
2018-07-09T13:11:19.000Z,36
2018-07-09T13:12:19.000Z,36
2018-07-09T13:13:19.000Z,35
2018-07-09T13:14:19.000Z,36
2018-07-09T13:15:19.000Z,36
2018-07-09T13:16:19.000Z,36
2018-07-09T13:17:19.000Z,36
2018-07-09T13:18:19.000Z,35
2018-07-09T13:19:19.000Z,35
2018-07-09T13:21:19.000Z,35
2018-07-09T13:22:19.000Z,35
2018-07-09T13:23:19.000Z,35
2018-07-09T13:24:19.000Z,35
2018-07-09T13:25:19.000Z,35
2018-07-09T13:26:19.000Z,35
2018-07-09T13:27:19.000Z,35
2018-07-09T13:28:19.000Z,36
2018-07-09T13:29:19.000Z,35
2018-07-09T13:31:19.000Z,35
2018-07-09T13:32:19.000Z,36
2018-07-09T13:33:19.000Z,35
2018-07-09T13:34:19.000Z,36
2018-07-09T13:35:19.000Z,36
2018-07-09T13:36:18.000Z,36
2018-07-09T13:37:18.000Z,36
2018-07-09T13:38:18.000Z,36
2018-07-09T13:39:18.000Z,36
2018-07-09T13:40:18.000Z,36
2018-07-09T13:41:18.000Z,36
2018-07-09T13:42:18.000Z,36
2018-07-09T13:43:18.000Z,36
2018-07-09T13:44:18.000Z,36
2018-07-09T13:45:18.000Z,36
2018-07-09T13:46:18.000Z,36
2018-07-09T13:47:18.000Z,36
2018-07-09T13:48:18.000Z,35
2018-07-09T13:49:18.000Z,36
2018-07-09T13:50:18.000Z,36
2018-07-09T13:51:18.000Z,36
2018-07-09T13:52:18.000Z,36
2018-07-09T13:53:18.000Z,35
2018-07-09T13:54:18.000Z,35
2018-07-09T13:55:18.000Z,35
2018-07-09T13:56:18.000Z,35
2018-07-09T13:57:18.000Z,35
2018-07-09T13:58:18.000Z,35
2018-07-09T13:59:18.000Z,35
2018-07-09T14:00:18.000Z,35
2018-07-09T14:01:18.000Z,35
2018-07-09T14:02:18.000Z,35
2018-07-09T14:03:18.000Z,35
2018-07-09T14:04:18.000Z,35
2018-07-09T14:06:18.000Z,35
2018-07-09T14:07:18.000Z,35
2018-07-09T14:08:18.000Z,35
2018-07-09T14:09:18.000Z,35
2018-07-09T14:10:18.000Z,35
2018-07-09T14:12:18.000Z,35
2018-07-09T14:13:18.000Z,35
2018-07-09T14:14:18.000Z,35
2018-07-09T14:16:18.000Z,35
2018-07-09T14:17:18.000Z,35
2018-07-09T14:18:18.000Z,35
2018-07-09T14:19:18.000Z,35
2018-07-09T14:20:18.000Z,35
2018-07-09T14:21:18.000Z,35
2018-07-09T14:22:18.000Z,35
2018-07-09T14:24:18.000Z,35
2018-07-09T14:25:18.000Z,35
2018-07-09T14:26:18.000Z,35
2018-07-09T14:27:18.000Z,35
2018-07-09T14:28:18.000Z,35
2018-07-09T14:30:18.000Z,35
2018-07-09T14:31:18.000Z,35
2018-07-09T14:32:18.000Z,35
2018-07-09T14:33:18.000Z,35
2018-07-09T14:35:18.000Z,35
2018-07-09T14:36:18.000Z,36
2018-07-09T14:37:18.000Z,35
2018-07-09T14:38:18.000Z,36
2018-07-09T14:39:18.000Z,35
2018-07-09T14:43:05.000Z,36
2018-07-09T14:44:05.000Z,36
2018-07-09T14:45:05.000Z,36
2018-07-09T14:46:05.000Z,36
2018-07-09T14:47:05.000Z,36
2018-07-09T14:48:05.000Z,36
2018-07-09T14:49:05.000Z,36
2018-07-09T14:50:05.000Z,36
2018-07-09T14:51:05.000Z,36
2018-07-09T14:52:05.000Z,36
2018-07-09T14:53:05.000Z,36
2018-07-09T14:54:05.000Z,36
2018-07-09T14:55:05.000Z,36
2018-07-09T14:56:05.000Z,35
2018-07-09T14:57:05.000Z,35
2018-07-09T14:58:05.000Z,35
2018-07-09T14:59:05.000Z,35
2018-07-09T15:00:05.000Z,35
2018-07-09T15:01:05.000Z,35
2018-07-09T15:02:05.000Z,35
2018-07-09T15:04:05.000Z,35
2018-07-09T15:05:05.000Z,35
2018-07-09T15:06:05.000Z,35
2018-07-09T15:08:05.000Z,35
2018-07-09T15:09:05.000Z,35
2018-07-09T15:10:05.000Z,35
2018-07-09T15:11:05.000Z,35
2018-07-09T15:12:05.000Z,35
2018-07-09T15:13:05.000Z,35
2018-07-09T15:14:05.000Z,35
2018-07-09T15:15:05.000Z,35
2018-07-09T15:16:05.000Z,35
2018-07-09T15:17:05.000Z,35
2018-07-09T15:18:05.000Z,35
2018-07-09T15:19:05.000Z,35
2018-07-09T15:20:05.000Z,35
2018-07-09T15:21:05.000Z,35
2018-07-09T15:22:05.000Z,35
2018-07-09T15:23:05.000Z,35
2018-07-09T15:24:05.000Z,35
2018-07-09T15:25:05.000Z,35
2018-07-09T15:26:05.000Z,35
2018-07-09T15:27:05.000Z,35
2018-07-09T15:28:05.000Z,35
2018-07-09T15:29:05.000Z,35
2018-07-09T15:30:05.000Z,35
2018-07-09T15:31:05.000Z,35
2018-07-09T15:33:05.000Z,34
2018-07-09T15:34:05.000Z,34
2018-07-09T15:35:05.000Z,34
2018-07-09T15:36:05.000Z,34
2018-07-09T15:37:05.000Z,34
2018-07-09T15:39:05.000Z,34
2018-07-09T15:40:05.000Z,34
2018-07-09T15:41:05.000Z,34
2018-07-09T15:43:04.000Z,34
2018-07-09T15:44:04.000Z,34
2018-07-09T15:46:04.000Z,34
2018-07-09T15:47:04.000Z,34
2018-07-09T15:49:04.000Z,34
2018-07-09T15:50:04.000Z,34
2018-07-09T15:51:04.000Z,34
2018-07-09T15:52:04.000Z,34
2018-07-09T15:53:04.000Z,34
2018-07-09T15:54:04.000Z,34
2018-07-09T15:55:04.000Z,34
2018-07-09T15:56:04.000Z,34
2018-07-09T15:57:04.000Z,34
2018-07-09T15:58:04.000Z,34
2018-07-09T15:59:04.000Z,34
2018-07-09T16:00:04.000Z,34
2018-07-09T16:01:04.000Z,34
2018-07-09T16:03:04.000Z,33
2018-07-09T16:04:04.000Z,34
2018-07-09T16:05:04.000Z,34
2018-07-09T16:06:04.000Z,34
2018-07-09T16:07:04.000Z,33
2018-07-09T16:08:04.000Z,33
2018-07-09T16:09:04.000Z,33
2018-07-09T16:10:04.000Z,33
2018-07-09T16:11:04.000Z,33